LHX084 EDDF-EDDL
Flight info
| Callsign | LHX084 |
|---|---|
| Flight time | 0h 33m |
| Altitude | 24000 |
| Route | MARUN3W/25C MARUN Y152 ARPEG Z850 ADEMI T854 DOMUX DOMUX1A |
| Aircraft | A319/M-SDE3FGHIRWY/LB1 |
Departure
| Time | 2026-05-04 17:06 |
|---|---|
| Airport | Frankfurt Main Airport (EDDF) |
Arrival
| Time | 2026-05-04 17:39 |
|---|---|
| Airport | Düsseldorf Airport (EDDL) |
| Time | Latitude | Longitude | Altitude | Speed | Heading |
|---|---|---|---|---|---|
| 2026-05-04 16:42 | 50.04653 | 8.57067 | 375 ft | 0 kts | 90° |
| 2026-05-04 16:56 | 50.04654 | 8.57038 | 376 ft | 2 kts | 89° |
| 2026-05-04 16:56 | 50.04658 | 8.56970 | 376 ft | 2 kts | 130° |
| 2026-05-04 16:57 | 50.04670 | 8.56956 | 376 ft | 2 kts | 166° |
| 2026-05-04 16:57 | 50.04693 | 8.56962 | 376 ft | 0 kts | 211° |
| 2026-05-04 16:58 | 50.04657 | 8.56937 | 376 ft | 0 kts | 205° |
| 2026-05-04 17:00 | 50.04620 | 8.56916 | 375 ft | 6 kts | 194° |
| 2026-05-04 17:00 | 50.04396 | 8.56842 | 370 ft | 11 kts | 189° |
| 2026-05-04 17:01 | 50.04276 | 8.56873 | 368 ft | 8 kts | 105° |
| 2026-05-04 17:01 | 50.04313 | 8.57059 | 369 ft | 10 kts | 70° |
| 2026-05-04 17:02 | 50.04368 | 8.57288 | 370 ft | 12 kts | 70° |
| 2026-05-04 17:02 | 50.04438 | 8.57580 | 368 ft | 16 kts | 70° |
| 2026-05-04 17:03 | 50.04477 | 8.57743 | 370 ft | 15 kts | 70° |
| 2026-05-04 17:03 | 50.04512 | 8.57892 | 373 ft | 13 kts | 70° |
| 2026-05-04 17:03 | 50.04558 | 8.58083 | 376 ft | 5 kts | 70° |
| 2026-05-04 17:04 | 50.04573 | 8.58153 | 377 ft | 2 kts | 82° |
| 2026-05-04 17:04 | 50.04535 | 8.58216 | 376 ft | 8 kts | 160° |
| 2026-05-04 17:05 | 50.04395 | 8.58198 | 373 ft | 9 kts | 240° |
| 2026-05-04 17:05 | 50.04259 | 8.57635 | 365 ft | 86 kts | 250° |
| 2026-05-04 17:06 | 50.03571 | 8.54823 | 1035 ft | 158 kts | 250° |
| 2026-05-04 17:06 | 50.03187 | 8.53249 | 1868 ft | 159 kts | 252° |
| 2026-05-04 17:07 | 50.02308 | 8.50015 | 3202 ft | 176 kts | 235° |
| 2026-05-04 17:07 | 50.01743 | 8.49084 | 3701 ft | 180 kts | 220° |
| 2026-05-04 17:07 | 50.00267 | 8.48002 | 4745 ft | 183 kts | 193° |
| 2026-05-04 17:07 | 49.98967 | 8.47662 | 5388 ft | 198 kts | 189° |
| 2026-05-04 17:08 | 49.97942 | 8.47446 | 5846 ft | 210 kts | 188° |
| 2026-05-04 17:08 | 49.95052 | 8.46581 | 7620 ft | 217 kts | 196° |
| 2026-05-04 17:08 | 49.93627 | 8.45941 | 8575 ft | 217 kts | 197° |
| 2026-05-04 17:09 | 49.92233 | 8.45121 | 9510 ft | 218 kts | 213° |
| 2026-05-04 17:09 | 49.91191 | 8.43496 | 10418 ft | 220 kts | 237° |
| 2026-05-04 17:09 | 49.90672 | 8.41256 | 11290 ft | 226 kts | 262° |
| 2026-05-04 17:10 | 49.91650 | 8.36642 | 12656 ft | 245 kts | 313° |
| 2026-05-04 17:10 | 49.96574 | 8.33001 | 14411 ft | 288 kts | 335° |
| 2026-05-04 17:11 | 49.98462 | 8.31810 | 14853 ft | 306 kts | 334° |
| 2026-05-04 17:11 | 50.00479 | 8.30514 | 15271 ft | 324 kts | 334° |
| 2026-05-04 17:11 | 50.04979 | 8.28418 | 16219 ft | 358 kts | 357° |
| 2026-05-04 17:12 | 50.07465 | 8.29005 | 16993 ft | 364 kts | 15° |
| 2026-05-04 17:12 | 50.12275 | 8.31569 | 18465 ft | 373 kts | 18° |
| 2026-05-04 17:13 | 50.19740 | 8.35517 | 20528 ft | 385 kts | 11° |
| 2026-05-04 17:14 | 50.27768 | 8.35290 | 22495 ft | 392 kts | 353° |
| 2026-05-04 17:14 | 50.30460 | 8.34994 | 23123 ft | 396 kts | 353° |
| 2026-05-04 17:14 | 50.36024 | 8.34535 | 23952 ft | 403 kts | 354° |
| 2026-05-04 17:15 | 50.38790 | 8.34350 | 23960 ft | 402 kts | 354° |
| 2026-05-04 17:15 | 50.44371 | 8.34013 | 23961 ft | 402 kts | 355° |
| 2026-05-04 17:16 | 50.49927 | 8.33690 | 23967 ft | 401 kts | 355° |
| 2026-05-04 17:16 | 50.58289 | 8.33213 | 23969 ft | 401 kts | 355° |
| 2026-05-04 17:17 | 50.61067 | 8.33055 | 23974 ft | 401 kts | 355° |
| 2026-05-04 17:17 | 50.69405 | 8.32574 | 23976 ft | 401 kts | 355° |
| 2026-05-04 17:18 | 50.72166 | 8.32415 | 23976 ft | 401 kts | 355° |
| 2026-05-04 17:18 | 50.77745 | 8.32094 | 23983 ft | 401 kts | 355° |
| 2026-05-04 17:19 | 50.83297 | 8.31772 | 23980 ft | 400 kts | 355° |
| 2026-05-04 17:19 | 50.88844 | 8.31450 | 23980 ft | 400 kts | 354° |
| 2026-05-04 17:20 | 50.93994 | 8.29056 | 23926 ft | 387 kts | 323° |
| 2026-05-04 17:20 | 50.98297 | 8.24086 | 23166 ft | 380 kts | 319° |
| 2026-05-04 17:20 | 51.00389 | 8.21527 | 22782 ft | 377 kts | 319° |
| 2026-05-04 17:21 | 51.04487 | 8.16474 | 21889 ft | 376 kts | 319° |
| 2026-05-04 17:21 | 51.08589 | 8.11379 | 20949 ft | 372 kts | 319° |
| 2026-05-04 17:22 | 51.10610 | 8.08851 | 20332 ft | 374 kts | 319° |
| 2026-05-04 17:22 | 51.12649 | 8.06288 | 19701 ft | 375 kts | 319° |
| 2026-05-04 17:23 | 51.17551 | 7.97012 | 17912 ft | 365 kts | 295° |
| 2026-05-04 17:23 | 51.18676 | 7.93454 | 17399 ft | 358 kts | 294° |
| 2026-05-04 17:23 | 51.20815 | 7.86519 | 16408 ft | 347 kts | 292° |
| 2026-05-04 17:24 | 51.21563 | 7.82929 | 15908 ft | 339 kts | 281° |
| 2026-05-04 17:24 | 51.22924 | 7.72130 | 14416 ft | 330 kts | 279° |
| 2026-05-04 17:25 | 51.23346 | 7.68528 | 13916 ft | 329 kts | 279° |
| 2026-05-04 17:25 | 51.24169 | 7.61404 | 12924 ft | 327 kts | 279° |
| 2026-05-04 17:26 | 51.24989 | 7.54349 | 11934 ft | 323 kts | 279° |
| 2026-05-04 17:26 | 51.26187 | 7.44146 | 10447 ft | 306 kts | 279° |
| 2026-05-04 17:27 | 51.26922 | 7.37514 | 9449 ft | 302 kts | 272° |
| 2026-05-04 17:27 | 51.26777 | 7.30882 | 8471 ft | 298 kts | 263° |
| 2026-05-04 17:28 | 51.26487 | 7.24401 | 8064 ft | 293 kts | 263° |
| 2026-05-04 17:29 | 51.26565 | 7.14701 | 7946 ft | 301 kts | 291° |
| 2026-05-04 17:29 | 51.31737 | 7.09950 | 7875 ft | 303 kts | 5° |
| 2026-05-04 17:30 | 51.37064 | 7.14342 | 7330 ft | 278 kts | 33° |
| 2026-05-04 17:31 | 51.39739 | 7.18513 | 6958 ft | 268 kts | 52° |
| 2026-05-04 17:31 | 51.43766 | 7.24377 | 5991 ft | 266 kts | 8° |
| 2026-05-04 17:32 | 51.47084 | 7.22752 | 5242 ft | 256 kts | 310° |
| 2026-05-04 17:33 | 51.47118 | 7.15616 | 4955 ft | 210 kts | 235° |
| 2026-05-04 17:33 | 51.46302 | 7.13699 | 4956 ft | 206 kts | 233° |
| 2026-05-04 17:34 | 51.43751 | 7.08179 | 4663 ft | 206 kts | 231° |
| 2026-05-04 17:34 | 51.42889 | 7.06378 | 4388 ft | 205 kts | 231° |
| 2026-05-04 17:35 | 51.40278 | 7.00960 | 3578 ft | 203 kts | 231° |
| 2026-05-04 17:35 | 51.38570 | 6.97409 | 3040 ft | 202 kts | 232° |
| 2026-05-04 17:35 | 51.37709 | 6.95613 | 2769 ft | 200 kts | 232° |
| 2026-05-04 17:36 | 51.36886 | 6.93895 | 2494 ft | 189 kts | 232° |
| 2026-05-04 17:36 | 51.36118 | 6.92292 | 2245 ft | 178 kts | 232° |
| 2026-05-04 17:36 | 51.35382 | 6.90754 | 2015 ft | 171 kts | 232° |
| 2026-05-04 17:36 | 51.34656 | 6.89236 | 1868 ft | 172 kts | 232° |
| 2026-05-04 17:37 | 51.33947 | 6.87751 | 1614 ft | 164 kts | 232° |
| 2026-05-04 17:37 | 51.33274 | 6.86340 | 1374 ft | 156 kts | 232° |
| 2026-05-04 17:37 | 51.32635 | 6.85003 | 1155 ft | 147 kts | 232° |
| 2026-05-04 17:37 | 51.32036 | 6.83746 | 988 ft | 139 kts | 232° |
| 2026-05-04 17:38 | 51.31483 | 6.82575 | 812 ft | 128 kts | 232° |
| 2026-05-04 17:38 | 51.30946 | 6.81438 | 638 ft | 126 kts | 231° |
| 2026-05-04 17:38 | 51.30413 | 6.80326 | 480 ft | 127 kts | 231° |
| 2026-05-04 17:38 | 51.29872 | 6.79205 | 305 ft | 127 kts | 231° |
| 2026-05-04 17:39 | 51.28869 | 6.77105 | 124 ft | 89 kts | 233° |
| 2026-05-04 17:39 | 51.28599 | 6.76537 | 124 ft | 35 kts | 232° |
| 2026-05-04 17:39 | 51.28460 | 6.76247 | 121 ft | 29 kts | 232° |
| 2026-05-04 17:40 | 51.28357 | 6.76069 | 120 ft | 13 kts | 208° |
| 2026-05-04 17:40 | 51.28268 | 6.76042 | 120 ft | 9 kts | 174° |
| 2026-05-04 17:40 | 51.28217 | 6.76064 | 119 ft | 4 kts | 156° |
| 2026-05-04 17:40 | 51.28194 | 6.76089 | 119 ft | 4 kts | 131° |
| 2026-05-04 17:41 | 51.28187 | 6.76136 | 120 ft | 4 kts | 76° |
| 2026-05-04 17:41 | 51.28203 | 6.76182 | 121 ft | 5 kts | 69° |
| 2026-05-04 17:41 | 51.28199 | 6.76232 | 122 ft | 4 kts | 125° |
| 2026-05-04 17:41 | 51.28173 | 6.76267 | 122 ft | 4 kts | 142° |
| 2026-05-04 17:42 | 51.28149 | 6.76303 | 123 ft | 4 kts | 127° |
| 2026-05-04 17:42 | 51.28136 | 6.76339 | 124 ft | 2 kts | 118° |
| 2026-05-04 17:42 | 51.28129 | 6.76360 | 125 ft | 1 kts | 119° |
| 2026-05-04 17:42 | 51.28119 | 6.76383 | 126 ft | 3 kts | 130° |
| 2026-05-04 17:43 | 51.28098 | 6.76411 | 128 ft | 3 kts | 144° |
| 2026-05-04 17:43 | 51.28081 | 6.76431 | 129 ft | 1 kts | 139° |
| 2026-05-04 17:43 | 51.28075 | 6.76450 | 130 ft | 3 kts | 105° |
| 2026-05-04 17:43 | 51.28071 | 6.76492 | 130 ft | 3 kts | 97° |
| 2026-05-04 17:44 | 51.28069 | 6.76524 | 131 ft | 2 kts | 97° |
| 2026-05-04 17:44 | 51.28068 | 6.76528 | 131 ft | 0 kts | 97° |